sensor_id;sensor_type;location;lat;lon;timestamp;P1;durP1;ratioP1;P2;durP2;ratioP2
22234;SDS011;11286;45.596;5.284;2023-04-01T00:01:03;10.07;;;4.20;;
22234;SDS011;11286;45.596;5.284;2023-04-01T00:03:31;9.98;;;4.32;;
22234;SDS011;11286;45.596;5.284;2023-04-01T00:05:58;12.77;;;4.57;;
22234;SDS011;11286;45.596;5.284;2023-04-01T00:08:24;8.00;;;3.00;;
22234;SDS011;11286;45.596;5.284;2023-04-01T00:10:51;9.60;;;2.80;;
22234;SDS011;11286;45.596;5.284;2023-04-01T00:13:17;7.05;;;2.40;;
22234;SDS011;11286;45.596;5.284;2023-04-01T00:15:43;5.78;;;1.92;;
22234;SDS011;11286;45.596;5.284;2023-04-01T00:18:09;5.50;;;1.70;;
22234;SDS011;11286;45.596;5.284;2023-04-01T00:20:36;7.65;;;2.00;;
22234;SDS011;11286;45.596;5.284;2023-04-01T00:23:02;6.85;;;1.70;;
22234;SDS011;11286;45.596;5.284;2023-04-01T00:25:28;6.90;;;1.92;;
22234;SDS011;11286;45.596;5.284;2023-04-01T00:27:54;4.00;;;1.60;;
22234;SDS011;11286;45.596;5.284;2023-04-01T00:30:20;6.57;;;1.60;;
22234;SDS011;11286;45.596;5.284;2023-04-01T00:32:45;6.88;;;2.05;;
22234;SDS011;11286;45.596;5.284;2023-04-01T00:35:11;5.65;;;2.00;;
22234;SDS011;11286;45.596;5.284;2023-04-01T00:37:37;6.35;;;2.20;;
22234;SDS011;11286;45.596;5.284;2023-04-01T00:40:05;9.48;;;2.10;;
22234;SDS011;11286;45.596;5.284;2023-04-01T00:42:32;6.93;;;2.25;;
22234;SDS011;11286;45.596;5.284;2023-04-01T00:44:57;6.35;;;2.08;;
22234;SDS011;11286;45.596;5.284;2023-04-01T00:47:43;5.97;;;2.47;;
22234;SDS011;11286;45.596;5.284;2023-04-01T00:50:09;9.05;;;2.28;;
22234;SDS011;11286;45.596;5.284;2023-04-01T00:52:35;6.18;;;1.60;;
22234;SDS011;11286;45.596;5.284;2023-04-01T00:55:00;6.53;;;2.13;;
22234;SDS011;11286;45.596;5.284;2023-04-01T00:57:31;9.05;;;2.03;;
22234;SDS011;11286;45.596;5.284;2023-04-01T01:00:02;6.38;;;2.20;;
22234;SDS011;11286;45.596;5.284;2023-04-01T01:02:34;6.18;;;2.00;;
22234;SDS011;11286;45.596;5.284;2023-04-01T01:05:00;7.00;;;1.83;;
22234;SDS011;11286;45.596;5.284;2023-04-01T01:21:51;8.88;;;1.90;;
22234;SDS011;11286;45.596;5.284;2023-04-01T01:24:27;8.65;;;2.10;;
22234;SDS011;11286;45.596;5.284;2023-04-01T01:27:11;11.35;;;2.20;;
22234;SDS011;11286;45.596;5.284;2023-04-01T01:35:26;9.60;;;2.03;;
22234;SDS011;11286;45.596;5.284;2023-04-01T01:37:58;7.13;;;1.80;;
22234;SDS011;11286;45.596;5.284;2023-04-01T01:40:26;8.10;;;2.00;;
22234;SDS011;11286;45.596;5.284;2023-04-01T01:42:55;9.07;;;1.98;;
22234;SDS011;11286;45.596;5.284;2023-04-01T01:45:24;6.82;;;2.33;;
22234;SDS011;11286;45.596;5.284;2023-04-01T01:47:51;6.20;;;2.10;;
22234;SDS011;11286;45.596;5.284;2023-04-01T01:50:19;9.20;;;2.25;;
22234;SDS011;11286;45.596;5.284;2023-04-01T01:52:45;10.20;;;2.08;;
22234;SDS011;11286;45.596;5.284;2023-04-01T01:55:30;6.22;;;1.80;;
22234;SDS011;11286;45.596;5.284;2023-04-01T01:57:59;6.10;;;2.10;;
22234;SDS011;11286;45.596;5.284;2023-04-01T02:00:28;5.50;;;1.85;;
22234;SDS011;11286;45.596;5.284;2023-04-01T02:02:54;7.40;;;2.20;;
22234;SDS011;11286;45.596;5.284;2023-04-01T02:05:22;6.93;;;2.05;;
22234;SDS011;11286;45.596;5.284;2023-04-01T02:07:55;8.25;;;1.92;;
22234;SDS011;11286;45.596;5.284;2023-04-01T02:10:26;4.78;;;2.00;;
22234;SDS011;11286;45.596;5.284;2023-04-01T02:12:53;7.35;;;2.03;;
22234;SDS011;11286;45.596;5.284;2023-04-01T02:15:24;6.43;;;1.95;;
22234;SDS011;11286;45.596;5.284;2023-04-01T02:17:52;9.23;;;2.15;;
22234;SDS011;11286;45.596;5.284;2023-04-01T02:20:20;8.48;;;1.83;;
22234;SDS011;11286;45.596;5.284;2023-04-01T02:22:48;9.20;;;2.28;;
22234;SDS011;11286;45.596;5.284;2023-04-01T02:25:37;6.65;;;2.03;;
22234;SDS011;11286;45.596;5.284;2023-04-01T02:28:04;7.40;;;2.22;;
22234;SDS011;11286;45.596;5.284;2023-04-01T02:30:32;6.88;;;2.10;;
22234;SDS011;11286;45.596;5.284;2023-04-01T02:33:00;5.82;;;1.60;;
22234;SDS011;11286;45.596;5.284;2023-04-01T02:35:28;8.18;;;2.03;;
22234;SDS011;11286;45.596;5.284;2023-04-01T02:37:54;5.82;;;1.63;;
22234;SDS011;11286;45.596;5.284;2023-04-01T02:40:20;6.97;;;1.75;;
22234;SDS011;11286;45.596;5.284;2023-04-01T02:42:46;6.40;;;2.20;;
22234;SDS011;11286;45.596;5.284;2023-04-01T02:45:12;3.80;;;1.35;;
22234;SDS011;11286;45.596;5.284;2023-04-01T02:47:38;6.85;;;1.70;;
22234;SDS011;11286;45.596;5.284;2023-04-01T02:50:05;5.30;;;1.80;;
22234;SDS011;11286;45.596;5.284;2023-04-01T02:52:31;5.93;;;1.65;;
22234;SDS011;11286;45.596;5.284;2023-04-01T02:54:57;8.30;;;1.92;;
22234;SDS011;11286;45.596;5.284;2023-04-01T02:57:23;6.95;;;1.40;;
22234;SDS011;11286;45.596;5.284;2023-04-01T02:59:49;5.97;;;2.00;;
22234;SDS011;11286;45.596;5.284;2023-04-01T03:02:15;5.68;;;1.40;;
22234;SDS011;11286;45.596;5.284;2023-04-01T03:04:42;4.93;;;1.58;;
22234;SDS011;11286;45.596;5.284;2023-04-01T03:07:07;5.10;;;1.52;;
22234;SDS011;11286;45.596;5.284;2023-04-01T03:09:35;6.00;;;1.58;;
22234;SDS011;11286;45.596;5.284;2023-04-01T03:12:01;5.25;;;1.52;;
22234;SDS011;11286;45.596;5.284;2023-04-01T03:14:27;5.00;;;1.67;;
22234;SDS011;11286;45.596;5.284;2023-04-01T03:16:53;4.18;;;1.25;;
22234;SDS011;11286;45.596;5.284;2023-04-01T03:19:19;4.28;;;1.23;;
22234;SDS011;11286;45.596;5.284;2023-04-01T03:21:45;5.28;;;1.25;;
22234;SDS011;11286;45.596;5.284;2023-04-01T03:24:10;4.45;;;1.30;;
22234;SDS011;11286;45.596;5.284;2023-04-01T03:26:36;4.78;;;1.23;;
22234;SDS011;11286;45.596;5.284;2023-04-01T03:29:02;5.07;;;1.50;;
22234;SDS011;11286;45.596;5.284;2023-04-01T03:31:27;5.70;;;1.60;;
22234;SDS011;11286;45.596;5.284;2023-04-01T03:33:53;5.22;;;1.50;;
22234;SDS011;11286;45.596;5.284;2023-04-01T03:36:19;4.32;;;1.42;;
22234;SDS011;11286;45.596;5.284;2023-04-01T03:38:45;4.68;;;1.30;;
22234;SDS011;11286;45.596;5.284;2023-04-01T03:41:16;4.40;;;1.35;;
22234;SDS011;11286;45.596;5.284;2023-04-01T03:43:42;3.53;;;1.35;;
22234;SDS011;11286;45.596;5.284;2023-04-01T03:46:08;3.15;;;1.23;;
22234;SDS011;11286;45.596;5.284;2023-04-01T03:48:34;2.90;;;0.93;;
22234;SDS011;11286;45.596;5.284;2023-04-01T03:51:00;5.65;;;1.35;;
22234;SDS011;11286;45.596;5.284;2023-04-01T03:53:26;4.25;;;1.35;;
22234;SDS011;11286;45.596;5.284;2023-04-01T03:55:52;3.70;;;1.27;;
22234;SDS011;11286;45.596;5.284;2023-04-01T03:58:18;4.43;;;1.40;;
22234;SDS011;11286;45.596;5.284;2023-04-01T04:00:44;5.65;;;1.10;;
22234;SDS011;11286;45.596;5.284;2023-04-01T04:03:10;5.13;;;1.30;;
22234;SDS011;11286;45.596;5.284;2023-04-01T04:05:36;3.92;;;0.98;;
22234;SDS011;11286;45.596;5.284;2023-04-01T04:08:01;3.28;;;1.10;;
22234;SDS011;11286;45.596;5.284;2023-04-01T04:10:27;6.07;;;1.05;;
22234;SDS011;11286;45.596;5.284;2023-04-01T04:12:54;4.55;;;1.25;;
22234;SDS011;11286;45.596;5.284;2023-04-01T04:15:20;3.42;;;1.13;;
22234;SDS011;11286;45.596;5.284;2023-04-01T04:17:46;3.65;;;1.27;;
22234;SDS011;11286;45.596;5.284;2023-04-01T04:20:12;3.10;;;1.20;;
22234;SDS011;11286;45.596;5.284;2023-04-01T04:22:38;2.15;;;0.90;;
22234;SDS011;11286;45.596;5.284;2023-04-01T04:25:04;5.45;;;1.20;;
22234;SDS011;11286;45.596;5.284;2023-04-01T04:27:30;3.85;;;1.20;;
22234;SDS011;11286;45.596;5.284;2023-04-01T04:29:56;3.35;;;1.05;;
22234;SDS011;11286;45.596;5.284;2023-04-01T04:32:21;4.65;;;1.27;;
22234;SDS011;11286;45.596;5.284;2023-04-01T04:34:47;4.25;;;1.20;;
22234;SDS011;11286;45.596;5.284;2023-04-01T04:37:13;4.82;;;1.33;;
22234;SDS011;11286;45.596;5.284;2023-04-01T04:39:38;4.70;;;1.00;;
22234;SDS011;11286;45.596;5.284;2023-04-01T04:42:05;4.20;;;1.00;;
22234;SDS011;11286;45.596;5.284;2023-04-01T04:44:30;6.68;;;1.40;;
22234;SDS011;11286;45.596;5.284;2023-04-01T04:46:56;4.75;;;1.30;;
22234;SDS011;11286;45.596;5.284;2023-04-01T04:49:21;3.97;;;1.30;;
22234;SDS011;11286;45.596;5.284;2023-04-01T04:51:47;6.13;;;1.20;;
22234;SDS011;11286;45.596;5.284;2023-04-01T04:54:13;5.82;;;1.30;;
22234;SDS011;11286;45.596;5.284;2023-04-01T04:56:38;4.68;;;1.33;;
22234;SDS011;11286;45.596;5.284;2023-04-01T04:59:04;2.47;;;0.80;;
22234;SDS011;11286;45.596;5.284;2023-04-01T05:01:31;7.55;;;1.60;;
22234;SDS011;11286;45.596;5.284;2023-04-01T05:03:58;6.15;;;2.95;;
22234;SDS011;11286;45.596;5.284;2023-04-01T05:06:24;7.45;;;3.60;;
22234;SDS011;11286;45.596;5.284;2023-04-01T05:08:50;4.80;;;2.30;;
22234;SDS011;11286;45.596;5.284;2023-04-01T05:11:17;4.15;;;1.80;;
22234;SDS011;11286;45.596;5.284;2023-04-01T05:13:44;4.65;;;1.42;;
22234;SDS011;11286;45.596;5.284;2023-04-01T05:16:11;4.47;;;1.30;;
22234;SDS011;11286;45.596;5.284;2023-04-01T05:18:41;4.28;;;1.38;;
22234;SDS011;11286;45.596;5.284;2023-04-01T05:21:08;4.30;;;1.65;;
22234;SDS011;11286;45.596;5.284;2023-04-01T05:23:35;6.00;;;1.63;;
22234;SDS011;11286;45.596;5.284;2023-04-01T05:26:04;3.70;;;1.20;;
22234;SDS011;11286;45.596;5.284;2023-04-01T05:28:35;4.45;;;1.33;;
22234;SDS011;11286;45.596;5.284;2023-04-01T05:31:01;5.28;;;1.23;;
22234;SDS011;11286;45.596;5.284;2023-04-01T05:33:28;4.97;;;1.55;;
22234;SDS011;11286;45.596;5.284;2023-04-01T05:35:54;5.88;;;1.10;;
22234;SDS011;11286;45.596;5.284;2023-04-01T05:38:20;5.20;;;1.85;;
22234;SDS011;11286;45.596;5.284;2023-04-01T05:40:46;4.85;;;1.63;;
22234;SDS011;11286;45.596;5.284;2023-04-01T05:43:12;4.45;;;1.63;;
22234;SDS011;11286;45.596;5.284;2023-04-01T05:45:37;7.50;;;1.40;;
22234;SDS011;11286;45.596;5.284;2023-04-01T05:48:03;4.07;;;1.20;;
22234;SDS011;11286;45.596;5.284;2023-04-01T05:50:29;4.35;;;0.95;;
22234;SDS011;11286;45.596;5.284;2023-04-01T05:52:55;3.72;;;1.27;;
22234;SDS011;11286;45.596;5.284;2023-04-01T05:55:21;2.92;;;1.05;;
22234;SDS011;11286;45.596;5.284;2023-04-01T05:57:47;5.03;;;1.08;;
22234;SDS011;11286;45.596;5.284;2023-04-01T06:00:14;3.47;;;0.90;;
22234;SDS011;11286;45.596;5.284;2023-04-01T06:02:41;3.70;;;1.48;;
22234;SDS011;11286;45.596;5.284;2023-04-01T06:07:39;5.60;;;1.20;;
22234;SDS011;11286;45.596;5.284;2023-04-01T06:10:12;4.97;;;1.02;;
22234;SDS011;11286;45.596;5.284;2023-04-01T06:28:47;4.25;;;1.63;;
22234;SDS011;11286;45.596;5.284;2023-04-01T06:42:25;4.20;;;1.40;;
22234;SDS011;11286;45.596;5.284;2023-04-01T06:45:16;5.45;;;1.30;;
22234;SDS011;11286;45.596;5.284;2023-04-01T06:53:29;4.03;;;1.25;;
22234;SDS011;11286;45.596;5.284;2023-04-01T06:56:32;5.70;;;1.38;;
22234;SDS011;11286;45.596;5.284;2023-04-01T06:59:05;5.55;;;1.23;;
22234;SDS011;11286;45.596;5.284;2023-04-01T07:01:41;4.65;;;1.45;;
22234;SDS011;11286;45.596;5.284;2023-04-01T07:04:15;4.63;;;1.30;;
22234;SDS011;11286;45.596;5.284;2023-04-01T07:06:58;4.40;;;1.35;;
22234;SDS011;11286;45.596;5.284;2023-04-01T07:09:37;5.57;;;2.05;;
22234;SDS011;11286;45.596;5.284;2023-04-01T07:12:10;3.95;;;1.20;;
22234;SDS011;11286;45.596;5.284;2023-04-01T07:14:46;5.50;;;1.52;;
22234;SDS011;11286;45.596;5.284;2023-04-01T07:17:15;3.22;;;1.70;;
22234;SDS011;11286;45.596;5.284;2023-04-01T07:20:00;3.95;;;1.50;;
22234;SDS011;11286;45.596;5.284;2023-04-01T07:22:31;4.15;;;1.30;;
22234;SDS011;11286;45.596;5.284;2023-04-01T07:25:20;4.05;;;1.70;;
22234;SDS011;11286;45.596;5.284;2023-04-01T07:27:50;2.95;;;1.30;;
22234;SDS011;11286;45.596;5.284;2023-04-01T07:30:21;5.55;;;1.60;;
22234;SDS011;11286;45.596;5.284;2023-04-01T07:32:56;3.95;;;1.40;;
22234;SDS011;11286;45.596;5.284;2023-04-01T07:35:38;4.53;;;1.33;;
22234;SDS011;11286;45.596;5.284;2023-04-01T07:52:00;4.68;;;1.27;;
22234;SDS011;11286;45.596;5.284;2023-04-01T07:54:37;5.32;;;1.55;;
22234;SDS011;11286;45.596;5.284;2023-04-01T08:00:00;3.53;;;1.30;;
22234;SDS011;11286;45.596;5.284;2023-04-01T08:05:26;4.10;;;1.33;;
22234;SDS011;11286;45.596;5.284;2023-04-01T08:08:04;3.83;;;1.35;;
22234;SDS011;11286;45.596;5.284;2023-04-01T08:21:42;3.00;;;1.27;;
22234;SDS011;11286;45.596;5.284;2023-04-01T08:24:33;4.53;;;1.20;;
22234;SDS011;11286;45.596;5.284;2023-04-01T08:27:01;4.40;;;1.48;;
22234;SDS011;11286;45.596;5.284;2023-04-01T08:30:20;5.65;;;1.50;;
22234;SDS011;11286;45.596;5.284;2023-04-01T08:32:30;4.22;;;1.58;;
22234;SDS011;11286;45.596;5.284;2023-04-01T08:35:14;11.43;;;5.95;;
22234;SDS011;11286;45.596;5.284;2023-04-01T08:37:45;4.25;;;1.30;;
22234;SDS011;11286;45.596;5.284;2023-04-01T08:45:39;2.50;;;1.17;;
22234;SDS011;11286;45.596;5.284;2023-04-01T08:51:15;2.30;;;0.70;;
22234;SDS011;11286;45.596;5.284;2023-04-01T08:54:56;4.95;;;1.25;;
22234;SDS011;11286;45.596;5.284;2023-04-01T08:57:35;2.08;;;0.98;;
22234;SDS011;11286;45.596;5.284;2023-04-01T09:01:26;2.50;;;1.00;;
22234;SDS011;11286;45.596;5.284;2023-04-01T09:03:36;3.40;;;1.02;;
22234;SDS011;11286;45.596;5.284;2023-04-01T09:06:17;3.47;;;1.50;;
22234;SDS011;11286;45.596;5.284;2023-04-01T09:17:29;3.13;;;1.38;;
22234;SDS011;11286;45.596;5.284;2023-04-01T09:20:08;2.47;;;0.95;;
22234;SDS011;11286;45.596;5.284;2023-04-01T09:30:41;3.22;;;0.95;;
22234;SDS011;11286;45.596;5.284;2023-04-01T09:41:30;3.50;;;1.70;;
22234;SDS011;11286;45.596;5.284;2023-04-01T10:02:54;3.90;;;1.63;;
22234;SDS011;11286;45.596;5.284;2023-04-01T10:16:19;3.80;;;1.50;;
22234;SDS011;11286;45.596;5.284;2023-04-01T10:21:57;1.92;;;1.02;;
22234;SDS011;11286;45.596;5.284;2023-04-01T10:24:32;1.58;;;0.90;;
22234;SDS011;11286;45.596;5.284;2023-04-01T10:27:16;1.38;;;0.95;;
22234;SDS011;11286;45.596;5.284;2023-04-01T10:41:50;4.20;;;1.00;;
22234;SDS011;11286;45.596;5.284;2023-04-01T11:07:22;2.33;;;1.55;;
22234;SDS011;11286;45.596;5.284;2023-04-01T11:10:32;3.55;;;1.30;;
22234;SDS011;11286;45.596;5.284;2023-04-01T11:16:02;2.35;;;0.85;;
22234;SDS011;11286;45.596;5.284;2023-04-01T11:34:42;1.42;;;0.80;;
22234;SDS011;11286;45.596;5.284;2023-04-01T11:40:16;1.90;;;1.00;;
22234;SDS011;11286;45.596;5.284;2023-04-01T11:43:01;1.65;;;0.90;;
22234;SDS011;11286;45.596;5.284;2023-04-01T11:48:35;3.83;;;1.60;;
22234;SDS011;11286;45.596;5.284;2023-04-01T11:57:13;2.63;;;1.42;;
22234;SDS011;11286;45.596;5.284;2023-04-01T12:00:36;1.77;;;0.70;;
22234;SDS011;11286;45.596;5.284;2023-04-01T12:03:15;1.92;;;1.00;;
22234;SDS011;11286;45.596;5.284;2023-04-01T12:09:09;1.70;;;0.77;;
22234;SDS011;11286;45.596;5.284;2023-04-01T12:11:46;1.55;;;0.80;;
22234;SDS011;11286;45.596;5.284;2023-04-01T12:22:46;1.25;;;0.70;;
22234;SDS011;11286;45.596;5.284;2023-04-01T12:25:33;1.50;;;0.52;;
22234;SDS011;11286;45.596;5.284;2023-04-01T12:55:39;2.42;;;0.80;;
22234;SDS011;11286;45.596;5.284;2023-04-01T13:01:05;2.65;;;1.05;;
22234;SDS011;11286;45.596;5.284;2023-04-01T13:09:34;1.98;;;0.95;;
22234;SDS011;11286;45.596;5.284;2023-04-01T13:29:16;4.60;;;2.33;;
22234;SDS011;11286;45.596;5.284;2023-04-01T13:37:18;2.70;;;1.90;;
22234;SDS011;11286;45.596;5.284;2023-04-01T13:42:47;1.20;;;0.80;;
22234;SDS011;11286;45.596;5.284;2023-04-01T13:48:35;2.67;;;0.90;;
22234;SDS011;11286;45.596;5.284;2023-04-01T14:02:57;1.33;;;1.10;;
22234;SDS011;11286;45.596;5.284;2023-04-01T14:14:18;0.40;;;0.30;;
22234;SDS011;11286;45.596;5.284;2023-04-01T14:24:57;0.52;;;0.50;;
22234;SDS011;11286;45.596;5.284;2023-04-01T14:27:50;0.88;;;0.50;;
22234;SDS011;11286;45.596;5.284;2023-04-01T14:35:35;0.40;;;0.30;;
22234;SDS011;11286;45.596;5.284;2023-04-01T14:49:37;0.65;;;0.50;;
22234;SDS011;11286;45.596;5.284;2023-04-01T14:54:59;1.20;;;0.55;;
22234;SDS011;11286;45.596;5.284;2023-04-01T14:57:30;0.75;;;0.43;;
22234;SDS011;11286;45.596;5.284;2023-04-01T15:00:00;0.82;;;0.40;;
22234;SDS011;11286;45.596;5.284;2023-04-01T15:02:43;2.92;;;0.75;;
22234;SDS011;11286;45.596;5.284;2023-04-01T15:05:32;2.05;;;0.50;;
22234;SDS011;11286;45.596;5.284;2023-04-01T15:08:25;1.30;;;0.85;;
22234;SDS011;11286;45.596;5.284;2023-04-01T15:11:07;0.85;;;0.38;;
22234;SDS011;11286;45.596;5.284;2023-04-01T15:16:30;2.42;;;0.60;;
22234;SDS011;11286;45.596;5.284;2023-04-01T15:32:58;1.73;;;0.60;;
22234;SDS011;11286;45.596;5.284;2023-04-01T15:41:15;0.75;;;0.70;;
22234;SDS011;11286;45.596;5.284;2023-04-01T15:43:53;1.65;;;0.60;;
22234;SDS011;11286;45.596;5.284;2023-04-01T16:03:10;1.35;;;0.70;;
22234;SDS011;11286;45.596;5.284;2023-04-01T16:09:02;0.95;;;0.80;;
22234;SDS011;11286;45.596;5.284;2023-04-01T16:19:49;0.95;;;0.60;;
22234;SDS011;11286;45.596;5.284;2023-04-01T16:22:23;0.80;;;0.68;;
22234;SDS011;11286;45.596;5.284;2023-04-01T16:35:44;1.10;;;1.00;;
22234;SDS011;11286;45.596;5.284;2023-04-01T16:38:25;1.48;;;1.30;;
22234;SDS011;11286;45.596;5.284;2023-04-01T16:41:01;1.67;;;1.10;;
22234;SDS011;11286;45.596;5.284;2023-04-01T16:43:44;2.30;;;1.40;;
22234;SDS011;11286;45.596;5.284;2023-04-01T16:46:26;2.05;;;1.08;;
22234;SDS011;11286;45.596;5.284;2023-04-01T16:51:47;3.83;;;1.00;;
22234;SDS011;11286;45.596;5.284;2023-04-01T16:59:53;1.02;;;0.70;;
22234;SDS011;11286;45.596;5.284;2023-04-01T17:02:38;2.65;;;1.25;;
22234;SDS011;11286;45.596;5.284;2023-04-01T17:05:12;2.60;;;1.73;;
22234;SDS011;11286;45.596;5.284;2023-04-01T17:10:32;2.97;;;2.28;;
22234;SDS011;11286;45.596;5.284;2023-04-01T17:13:33;2.45;;;1.52;;
22234;SDS011;11286;45.596;5.284;2023-04-01T17:18:44;2.05;;;1.20;;
22234;SDS011;11286;45.596;5.284;2023-04-01T17:21:18;2.88;;;1.08;;
22234;SDS011;11286;45.596;5.284;2023-04-01T17:30:13;1.67;;;0.80;;
22234;SDS011;11286;45.596;5.284;2023-04-01T17:32:48;1.63;;;1.15;;
22234;SDS011;11286;45.596;5.284;2023-04-01T17:35:29;5.03;;;1.45;;
22234;SDS011;11286;45.596;5.284;2023-04-01T17:43:52;3.92;;;1.65;;
22234;SDS011;11286;45.596;5.284;2023-04-01T17:52:23;3.65;;;2.00;;
22234;SDS011;11286;45.596;5.284;2023-04-01T18:08:16;4.97;;;3.08;;
22234;SDS011;11286;45.596;5.284;2023-04-01T18:13:50;4.53;;;3.47;;
22234;SDS011;11286;45.596;5.284;2023-04-01T18:22:18;2.90;;;2.17;;
22234;SDS011;11286;45.596;5.284;2023-04-01T18:25:01;2.38;;;1.90;;
22234;SDS011;11286;45.596;5.284;2023-04-01T18:27:41;2.13;;;1.90;;
22234;SDS011;11286;45.596;5.284;2023-04-01T18:30:15;2.08;;;1.38;;
22234;SDS011;11286;45.596;5.284;2023-04-01T18:32:48;2.00;;;1.58;;
22234;SDS011;11286;45.596;5.284;2023-04-01T18:35:24;2.17;;;1.42;;
22234;SDS011;11286;45.596;5.284;2023-04-01T18:43:17;2.28;;;1.60;;
22234;SDS011;11286;45.596;5.284;2023-04-01T18:48:51;2.33;;;1.95;;
22234;SDS011;11286;45.596;5.284;2023-04-01T18:54:27;2.30;;;2.08;;
22234;SDS011;11286;45.596;5.284;2023-04-01T18:57:01;2.17;;;1.92;;
22234;SDS011;11286;45.596;5.284;2023-04-01T18:59:42;2.50;;;2.30;;
22234;SDS011;11286;45.596;5.284;2023-04-01T19:02:19;2.53;;;2.05;;
22234;SDS011;11286;45.596;5.284;2023-04-01T19:10:16;2.58;;;2.38;;
22234;SDS011;11286;45.596;5.284;2023-04-01T19:15:31;3.03;;;2.28;;
22234;SDS011;11286;45.596;5.284;2023-04-01T19:29:23;5.45;;;3.17;;
22234;SDS011;11286;45.596;5.284;2023-04-01T19:48:43;4.25;;;3.00;;
22234;SDS011;11286;45.596;5.284;2023-04-01T19:56:56;4.93;;;2.72;;
22234;SDS011;11286;45.596;5.284;2023-04-01T19:59:33;5.90;;;3.30;;
22234;SDS011;11286;45.596;5.284;2023-04-01T20:04:42;5.72;;;4.30;;
22234;SDS011;11286;45.596;5.284;2023-04-01T20:07:18;4.03;;;3.63;;
22234;SDS011;11286;45.596;5.284;2023-04-01T20:14:55;3.85;;;3.53;;
22234;SDS011;11286;45.596;5.284;2023-04-01T20:20:21;5.38;;;3.60;;
22234;SDS011;11286;45.596;5.284;2023-04-01T20:25:55;6.53;;;3.95;;
22234;SDS011;11286;45.596;5.284;2023-04-01T20:28:31;5.93;;;4.20;;
22234;SDS011;11286;45.596;5.284;2023-04-01T20:34:01;5.32;;;4.35;;
22234;SDS011;11286;45.596;5.284;2023-04-01T20:50:48;4.50;;;3.53;;
22234;SDS011;11286;45.596;5.284;2023-04-01T20:53:20;6.93;;;3.63;;
22234;SDS011;11286;45.596;5.284;2023-04-01T21:01:40;4.15;;;3.72;;
22234;SDS011;11286;45.596;5.284;2023-04-01T21:07:14;4.82;;;4.28;;
22234;SDS011;11286;45.596;5.284;2023-04-01T21:09:50;6.07;;;4.38;;
22234;SDS011;11286;45.596;5.284;2023-04-01T21:17:41;10.85;;;9.75;;
22234;SDS011;11286;45.596;5.284;2023-04-01T21:23:28;7.45;;;6.75;;
22234;SDS011;11286;45.596;5.284;2023-04-01T21:34:42;6.63;;;6.03;;
22234;SDS011;11286;45.596;5.284;2023-04-01T21:50:02;5.55;;;4.20;;
22234;SDS011;11286;45.596;5.284;2023-04-01T21:58:38;5.50;;;4.47;;
22234;SDS011;11286;45.596;5.284;2023-04-01T22:04:13;5.63;;;5.10;;
22234;SDS011;11286;45.596;5.284;2023-04-01T22:07:33;8.93;;;6.35;;
22234;SDS011;11286;45.596;5.284;2023-04-01T22:18:32;12.45;;;11.15;;
22234;SDS011;11286;45.596;5.284;2023-04-01T22:23:49;7.75;;;6.80;;
22234;SDS011;11286;45.596;5.284;2023-04-01T22:26:33;6.10;;;5.43;;
22234;SDS011;11286;45.596;5.284;2023-04-01T22:37:23;6.18;;;5.57;;
22234;SDS011;11286;45.596;5.284;2023-04-01T22:40:09;5.90;;;5.32;;
22234;SDS011;11286;45.596;5.284;2023-04-01T22:42:46;6.72;;;5.40;;
22234;SDS011;11286;45.596;5.284;2023-04-01T22:45:39;7.82;;;5.68;;
22234;SDS011;11286;45.596;5.284;2023-04-01T22:48:18;7.32;;;6.63;;
22234;SDS011;11286;45.596;5.284;2023-04-01T22:50:53;7.18;;;6.47;;
22234;SDS011;11286;45.596;5.284;2023-04-01T22:56:18;9.77;;;8.77;;
22234;SDS011;11286;45.596;5.284;2023-04-01T22:59:06;8.00;;;7.15;;
22234;SDS011;11286;45.596;5.284;2023-04-01T23:01:36;7.93;;;6.72;;
22234;SDS011;11286;45.596;5.284;2023-04-01T23:04:09;8.00;;;7.20;;
22234;SDS011;11286;45.596;5.284;2023-04-01T23:06:45;9.27;;;7.38;;
22234;SDS011;11286;45.596;5.284;2023-04-01T23:11:49;9.95;;;7.93;;
22234;SDS011;11286;45.596;5.284;2023-04-01T23:14:41;8.95;;;8.18;;
22234;SDS011;11286;45.596;5.284;2023-04-01T23:18:17;9.65;;;8.65;;
22234;SDS011;11286;45.596;5.284;2023-04-01T23:20:32;9.18;;;8.07;;
22234;SDS011;11286;45.596;5.284;2023-04-01T23:26:24;9.95;;;8.95;;
22234;SDS011;11286;45.596;5.284;2023-04-01T23:29:08;10.27;;;9.38;;
22234;SDS011;11286;45.596;5.284;2023-04-01T23:31:41;11.00;;;9.70;;
22234;SDS011;11286;45.596;5.284;2023-04-01T23:36:43;9.55;;;8.65;;
22234;SDS011;11286;45.596;5.284;2023-04-01T23:42:44;9.90;;;9.00;;
22234;SDS011;11286;45.596;5.284;2023-04-01T23:44:52;9.98;;;8.98;;
22234;SDS011;11286;45.596;5.284;2023-04-01T23:47:22;9.65;;;8.68;;
22234;SDS011;11286;45.596;5.284;2023-04-01T23:49:53;9.80;;;8.82;;
22234;SDS011;11286;45.596;5.284;2023-04-01T23:52:27;9.70;;;8.45;;
